sensor_id;sensor_type;location;lat;lon;timestamp;temperature;humidity
30186;DHT22;31152;49.190;8.122;2023-09-12T00:00:52;20.40;99.90
30186;DHT22;31152;49.190;8.122;2023-09-12T00:03:22;20.40;99.90
30186;DHT22;31152;49.190;8.122;2023-09-12T00:05:54;20.40;99.90
30186;DHT22;31152;49.190;8.122;2023-09-12T00:08:26;20.30;99.90
30186;DHT22;31152;49.190;8.122;2023-09-12T00:13:27;20.30;99.90
30186;DHT22;31152;49.190;8.122;2023-09-12T00:15:56;20.20;99.90
30186;DHT22;31152;49.190;8.122;2023-09-12T00:18:23;20.20;99.90
30186;DHT22;31152;49.190;8.122;2023-09-12T00:20:51;20.20;99.90
30186;DHT22;31152;49.190;8.122;2023-09-12T00:23:20;20.20;99.90
30186;DHT22;31152;49.190;8.122;2023-09-12T00:25:49;20.10;99.90
30186;DHT22;31152;49.190;8.122;2023-09-12T00:28:16;20.10;99.90
30186;DHT22;31152;49.190;8.122;2023-09-12T00:30:42;20.10;99.90
30186;DHT22;31152;49.190;8.122;2023-09-12T00:33:09;20.10;99.90
30186;DHT22;31152;49.190;8.122;2023-09-12T00:35:38;20.00;99.90
30186;DHT22;31152;49.190;8.122;2023-09-12T00:38:05;20.10;99.90
30186;DHT22;31152;49.190;8.122;2023-09-12T00:40:35;20.10;99.90
30186;DHT22;31152;49.190;8.122;2023-09-12T00:43:02;20.10;99.90
30186;DHT22;31152;49.190;8.122;2023-09-12T00:45:29;20.10;99.90
30186;DHT22;31152;49.190;8.122;2023-09-12T00:47:58;20.10;99.90
30186;DHT22;31152;49.190;8.122;2023-09-12T00:50:27;20.10;99.90
30186;DHT22;31152;49.190;8.122;2023-09-12T00:52:57;20.10;99.90
30186;DHT22;31152;49.190;8.122;2023-09-12T00:55:29;20.10;99.90
30186;DHT22;31152;49.190;8.122;2023-09-12T00:57:57;20.10;99.90
30186;DHT22;31152;49.190;8.122;2023-09-12T01:00:24;20.10;99.90
30186;DHT22;31152;49.190;8.122;2023-09-12T01:02:52;20.00;99.90
30186;DHT22;31152;49.190;8.122;2023-09-12T01:05:21;20.10;99.90
30186;DHT22;31152;49.190;8.122;2023-09-12T01:07:48;20.10;99.90
30186;DHT22;31152;49.190;8.122;2023-09-12T01:10:15;20.10;99.90
30186;DHT22;31152;49.190;8.122;2023-09-12T01:12:42;20.00;99.90
30186;DHT22;31152;49.190;8.122;2023-09-12T01:15:10;20.00;99.90
30186;DHT22;31152;49.190;8.122;2023-09-12T01:17:46;20.10;99.90
30186;DHT22;31152;49.190;8.122;2023-09-12T01:20:16;20.10;99.90
30186;DHT22;31152;49.190;8.122;2023-09-12T01:26:12;20.10;99.90
30186;DHT22;31152;49.190;8.122;2023-09-12T01:28:45;20.10;99.90
30186;DHT22;31152;49.190;8.122;2023-09-12T01:31:13;20.10;99.90
30186;DHT22;31152;49.190;8.122;2023-09-12T01:33:43;20.10;99.90
30186;DHT22;31152;49.190;8.122;2023-09-12T01:36:10;20.00;99.90
30186;DHT22;31152;49.190;8.122;2023-09-12T01:38:39;20.00;99.90
30186;DHT22;31152;49.190;8.122;2023-09-12T01:41:07;20.00;99.90
30186;DHT22;31152;49.190;8.122;2023-09-12T01:43:36;20.00;99.90
30186;DHT22;31152;49.190;8.122;2023-09-12T01:46:08;20.00;99.90
30186;DHT22;31152;49.190;8.122;2023-09-12T01:48:36;20.00;99.90
30186;DHT22;31152;49.190;8.122;2023-09-12T01:51:05;20.00;99.90
30186;DHT22;31152;49.190;8.122;2023-09-12T01:53:33;20.00;99.90
30186;DHT22;31152;49.190;8.122;2023-09-12T01:56:01;20.00;99.90
30186;DHT22;31152;49.190;8.122;2023-09-12T01:58:28;20.00;99.90
30186;DHT22;31152;49.190;8.122;2023-09-12T02:00:55;19.80;99.90
30186;DHT22;31152;49.190;8.122;2023-09-12T02:03:24;19.80;99.90
30186;DHT22;31152;49.190;8.122;2023-09-12T02:05:51;19.80;99.90
30186;DHT22;31152;49.190;8.122;2023-09-12T02:08:18;19.80;99.90
30186;DHT22;31152;49.190;8.122;2023-09-12T02:10:45;19.80;99.90
30186;DHT22;31152;49.190;8.122;2023-09-12T02:13:11;19.80;99.90
30186;DHT22;31152;49.190;8.122;2023-09-12T02:15:38;19.80;99.90
30186;DHT22;31152;49.190;8.122;2023-09-12T02:18:05;19.80;99.90
30186;DHT22;31152;49.190;8.122;2023-09-12T02:20:33;19.80;99.90
30186;DHT22;31152;49.190;8.122;2023-09-12T02:23:04;19.90;99.90
30186;DHT22;31152;49.190;8.122;2023-09-12T02:25:30;19.90;99.90
30186;DHT22;31152;49.190;8.122;2023-09-12T02:28:00;20.00;99.90
30186;DHT22;31152;49.190;8.122;2023-09-12T02:30:26;19.90;99.90
30186;DHT22;31152;49.190;8.122;2023-09-12T02:32:55;19.90;99.90
30186;DHT22;31152;49.190;8.122;2023-09-12T02:35:24;20.00;99.90
30186;DHT22;31152;49.190;8.122;2023-09-12T02:37:56;20.00;99.90
30186;DHT22;31152;49.190;8.122;2023-09-12T02:40:23;19.90;99.90
30186;DHT22;31152;49.190;8.122;2023-09-12T02:42:50;19.90;99.90
30186;DHT22;31152;49.190;8.122;2023-09-12T02:45:17;19.90;99.90
30186;DHT22;31152;49.190;8.122;2023-09-12T02:47:44;19.90;99.90
30186;DHT22;31152;49.190;8.122;2023-09-12T02:50:15;19.80;99.90
30186;DHT22;31152;49.190;8.122;2023-09-12T02:52:42;19.80;99.90
30186;DHT22;31152;49.190;8.122;2023-09-12T02:55:09;19.70;99.90
30186;DHT22;31152;49.190;8.122;2023-09-12T02:57:36;19.70;99.90
30186;DHT22;31152;49.190;8.122;2023-09-12T03:00:03;19.70;99.90
30186;DHT22;31152;49.190;8.122;2023-09-12T03:02:33;19.70;99.90
30186;DHT22;31152;49.190;8.122;2023-09-12T03:05:00;19.70;99.90
30186;DHT22;31152;49.190;8.122;2023-09-12T03:07:29;19.70;99.90
30186;DHT22;31152;49.190;8.122;2023-09-12T03:09:57;19.60;99.90
30186;DHT22;31152;49.190;8.122;2023-09-12T03:12:23;19.70;99.90
30186;DHT22;31152;49.190;8.122;2023-09-12T03:14:50;19.60;99.90
30186;DHT22;31152;49.190;8.122;2023-09-12T03:17:20;19.60;99.90
30186;DHT22;31152;49.190;8.122;2023-09-12T03:19:46;19.60;99.90
30186;DHT22;31152;49.190;8.122;2023-09-12T03:22:13;19.60;99.90
30186;DHT22;31152;49.190;8.122;2023-09-12T03:24:42;19.60;99.90
30186;DHT22;31152;49.190;8.122;2023-09-12T03:27:12;19.60;99.90
30186;DHT22;31152;49.190;8.122;2023-09-12T03:29:40;19.60;99.90
30186;DHT22;31152;49.190;8.122;2023-09-12T03:32:06;19.60;99.90
30186;DHT22;31152;49.190;8.122;2023-09-12T03:34:33;19.60;99.90
30186;DHT22;31152;49.190;8.122;2023-09-12T03:37:02;19.70;99.90
30186;DHT22;31152;49.190;8.122;2023-09-12T03:39:29;19.70;99.90
30186;DHT22;31152;49.190;8.122;2023-09-12T03:41:58;19.80;99.90
30186;DHT22;31152;49.190;8.122;2023-09-12T03:44:25;19.80;99.90
30186;DHT22;31152;49.190;8.122;2023-09-12T03:46:52;19.80;99.90
30186;DHT22;31152;49.190;8.122;2023-09-12T03:49:19;19.80;99.90
30186;DHT22;31152;49.190;8.122;2023-09-12T03:51:45;19.70;99.90
30186;DHT22;31152;49.190;8.122;2023-09-12T03:54:12;19.60;99.90
30186;DHT22;31152;49.190;8.122;2023-09-12T03:56:39;19.50;99.90
30186;DHT22;31152;49.190;8.122;2023-09-12T03:59:06;19.50;99.90
30186;DHT22;31152;49.190;8.122;2023-09-12T04:01:35;19.40;99.90
30186;DHT22;31152;49.190;8.122;2023-09-12T04:04:03;19.40;99.90
30186;DHT22;31152;49.190;8.122;2023-09-12T04:06:32;19.40;99.90
30186;DHT22;31152;49.190;8.122;2023-09-12T04:09:00;19.30;99.90
30186;DHT22;31152;49.190;8.122;2023-09-12T04:11:26;19.30;99.90
30186;DHT22;31152;49.190;8.122;2023-09-12T04:14:11;19.40;99.90
30186;DHT22;31152;49.190;8.122;2023-09-12T04:16:38;19.40;99.90
30186;DHT22;31152;49.190;8.122;2023-09-12T04:19:07;19.40;99.90
30186;DHT22;31152;49.190;8.122;2023-09-12T04:21:36;19.40;99.90
30186;DHT22;31152;49.190;8.122;2023-09-12T04:24:03;19.40;99.90
30186;DHT22;31152;49.190;8.122;2023-09-12T04:26:30;19.40;99.90
30186;DHT22;31152;49.190;8.122;2023-09-12T04:28:57;19.30;99.90
30186;DHT22;31152;49.190;8.122;2023-09-12T04:31:24;19.30;99.90
30186;DHT22;31152;49.190;8.122;2023-09-12T04:33:52;19.30;99.90
30186;DHT22;31152;49.190;8.122;2023-09-12T04:36:19;19.20;99.90
30186;DHT22;31152;49.190;8.122;2023-09-12T04:38:46;19.20;99.90
30186;DHT22;31152;49.190;8.122;2023-09-12T04:41:13;19.20;99.90
30186;DHT22;31152;49.190;8.122;2023-09-12T04:43:44;19.20;99.90
30186;DHT22;31152;49.190;8.122;2023-09-12T04:46:13;19.30;99.90
30186;DHT22;31152;49.190;8.122;2023-09-12T04:48:40;19.30;99.90
30186;DHT22;31152;49.190;8.122;2023-09-12T04:51:08;19.30;99.90
30186;DHT22;31152;49.190;8.122;2023-09-12T04:53:34;19.30;99.90
30186;DHT22;31152;49.190;8.122;2023-09-12T04:56:02;19.20;99.90
30186;DHT22;31152;49.190;8.122;2023-09-12T04:58:32;19.20;99.90
30186;DHT22;31152;49.190;8.122;2023-09-12T05:00:58;19.30;99.90
30186;DHT22;31152;49.190;8.122;2023-09-12T05:03:25;19.30;99.90
30186;DHT22;31152;49.190;8.122;2023-09-12T05:05:55;19.30;99.90
30186;DHT22;31152;49.190;8.122;2023-09-12T05:08:21;19.30;99.90
30186;DHT22;31152;49.190;8.122;2023-09-12T05:10:49;19.30;99.90
30186;DHT22;31152;49.190;8.122;2023-09-12T05:13:16;19.20;99.90
30186;DHT22;31152;49.190;8.122;2023-09-12T05:15:43;19.10;99.90
30186;DHT22;31152;49.190;8.122;2023-09-12T05:18:13;19.10;99.90
30186;DHT22;31152;49.190;8.122;2023-09-12T05:20:40;19.10;99.90
30186;DHT22;31152;49.190;8.122;2023-09-12T05:23:07;19.10;99.90
30186;DHT22;31152;49.190;8.122;2023-09-12T05:25:34;19.10;99.90
30186;DHT22;31152;49.190;8.122;2023-09-12T05:28:00;19.00;99.90
30186;DHT22;31152;49.190;8.122;2023-09-12T05:30:27;19.00;99.90
30186;DHT22;31152;49.190;8.122;2023-09-12T05:32:54;19.10;99.90
30186;DHT22;31152;49.190;8.122;2023-09-12T05:35:21;19.10;99.90
30186;DHT22;31152;49.190;8.122;2023-09-12T05:37:49;19.20;99.90
30186;DHT22;31152;49.190;8.122;2023-09-12T05:40:17;19.20;99.90
30186;DHT22;31152;49.190;8.122;2023-09-12T05:42:46;19.20;99.90
30186;DHT22;31152;49.190;8.122;2023-09-12T05:45:13;19.20;99.90
30186;DHT22;31152;49.190;8.122;2023-09-12T05:47:40;19.30;99.90
30186;DHT22;31152;49.190;8.122;2023-09-12T05:50:07;19.30;99.90
30186;DHT22;31152;49.190;8.122;2023-09-12T05:52:34;19.30;99.90
30186;DHT22;31152;49.190;8.122;2023-09-12T05:55:00;19.30;99.90
30186;DHT22;31152;49.190;8.122;2023-09-12T05:57:27;19.40;99.90
30186;DHT22;31152;49.190;8.122;2023-09-12T05:59:59;19.40;99.90
30186;DHT22;31152;49.190;8.122;2023-09-12T06:02:27;19.40;99.90
30186;DHT22;31152;49.190;8.122;2023-09-12T06:04:54;19.40;99.90
30186;DHT22;31152;49.190;8.122;2023-09-12T06:07:21;19.30;99.90
30186;DHT22;31152;49.190;8.122;2023-09-12T06:09:47;19.30;99.90
30186;DHT22;31152;49.190;8.122;2023-09-12T06:12:14;19.30;99.90
30186;DHT22;31152;49.190;8.122;2023-09-12T06:14:41;19.40;99.90
30186;DHT22;31152;49.190;8.122;2023-09-12T06:17:08;19.40;99.90
30186;DHT22;31152;49.190;8.122;2023-09-12T06:19:34;19.60;99.90
30186;DHT22;31152;49.190;8.122;2023-09-12T06:22:04;19.70;99.90
30186;DHT22;31152;49.190;8.122;2023-09-12T06:24:30;19.80;99.90
30186;DHT22;31152;49.190;8.122;2023-09-12T06:26:57;19.90;99.90
30186;DHT22;31152;49.190;8.122;2023-09-12T06:29:24;19.90;99.90
30186;DHT22;31152;49.190;8.122;2023-09-12T06:31:51;20.00;99.90
30186;DHT22;31152;49.190;8.122;2023-09-12T06:34:17;20.10;99.90
30186;DHT22;31152;49.190;8.122;2023-09-12T06:36:44;20.20;99.90
30186;DHT22;31152;49.190;8.122;2023-09-12T06:39:12;20.40;99.90
30186;DHT22;31152;49.190;8.122;2023-09-12T06:41:39;20.50;99.90
30186;DHT22;31152;49.190;8.122;2023-09-12T06:44:05;20.70;99.90
30186;DHT22;31152;49.190;8.122;2023-09-12T06:46:33;20.70;99.90
30186;DHT22;31152;49.190;8.122;2023-09-12T06:49:04;20.80;99.90
30186;DHT22;31152;49.190;8.122;2023-09-12T06:51:31;20.90;99.90
30186;DHT22;31152;49.190;8.122;2023-09-12T06:54:06;20.90;99.90
30186;DHT22;31152;49.190;8.122;2023-09-12T06:56:33;21.00;99.90
30186;DHT22;31152;49.190;8.122;2023-09-12T06:59:04;21.10;99.90
30186;DHT22;31152;49.190;8.122;2023-09-12T07:01:33;21.00;99.90
30186;DHT22;31152;49.190;8.122;2023-09-12T07:04:03;21.10;99.90
30186;DHT22;31152;49.190;8.122;2023-09-12T07:06:30;21.10;99.90
30186;DHT22;31152;49.190;8.122;2023-09-12T07:08:57;21.30;99.90
30186;DHT22;31152;49.190;8.122;2023-09-12T07:11:26;21.40;99.90
30186;DHT22;31152;49.190;8.122;2023-09-12T07:13:53;21.50;99.90
30186;DHT22;31152;49.190;8.122;2023-09-12T07:16:20;21.50;99.90
30186;DHT22;31152;49.190;8.122;2023-09-12T07:18:50;21.50;99.90
30186;DHT22;31152;49.190;8.122;2023-09-12T07:21:17;21.60;99.90
30186;DHT22;31152;49.190;8.122;2023-09-12T07:23:44;21.70;99.90
30186;DHT22;31152;49.190;8.122;2023-09-12T07:26:13;21.80;99.90
30186;DHT22;31152;49.190;8.122;2023-09-12T07:28:50;21.90;99.90
30186;DHT22;31152;49.190;8.122;2023-09-12T07:31:17;21.90;99.90
30186;DHT22;31152;49.190;8.122;2023-09-12T07:33:44;22.10;99.90
30186;DHT22;31152;49.190;8.122;2023-09-12T07:36:12;22.20;99.90
30186;DHT22;31152;49.190;8.122;2023-09-12T07:38:39;22.30;99.90
30186;DHT22;31152;49.190;8.122;2023-09-12T07:41:06;22.50;99.90
30186;DHT22;31152;49.190;8.122;2023-09-12T07:43:38;22.60;99.90
30186;DHT22;31152;49.190;8.122;2023-09-12T07:46:04;22.70;99.90
30186;DHT22;31152;49.190;8.122;2023-09-12T07:48:34;22.90;99.90
30186;DHT22;31152;49.190;8.122;2023-09-12T07:51:10;23.00;99.90
30186;DHT22;31152;49.190;8.122;2023-09-12T07:53:37;23.20;99.90
30186;DHT22;31152;49.190;8.122;2023-09-12T07:56:04;23.40;99.90
30186;DHT22;31152;49.190;8.122;2023-09-12T07:58:33;23.50;99.90
30186;DHT22;31152;49.190;8.122;2023-09-12T08:01:05;23.60;99.90
30186;DHT22;31152;49.190;8.122;2023-09-12T08:03:34;23.70;99.90
30186;DHT22;31152;49.190;8.122;2023-09-12T08:06:03;23.90;99.90
30186;DHT22;31152;49.190;8.122;2023-09-12T08:08:30;24.10;99.90
30186;DHT22;31152;49.190;8.122;2023-09-12T08:10:57;24.10;99.90
30186;DHT22;31152;49.190;8.122;2023-09-12T08:13:29;24.10;99.90
30186;DHT22;31152;49.190;8.122;2023-09-12T08:15:56;24.10;99.90
30186;DHT22;31152;49.190;8.122;2023-09-12T08:18:29;24.10;99.90
30186;DHT22;31152;49.190;8.122;2023-09-12T08:20:57;24.20;99.90
30186;DHT22;31152;49.190;8.122;2023-09-12T08:23:24;24.20;99.90
30186;DHT22;31152;49.190;8.122;2023-09-12T08:25:51;24.30;99.90
30186;DHT22;31152;49.190;8.122;2023-09-12T08:28:18;24.40;99.90
30186;DHT22;31152;49.190;8.122;2023-09-12T08:30:45;24.40;99.90
30186;DHT22;31152;49.190;8.122;2023-09-12T08:33:15;24.40;99.90
30186;DHT22;31152;49.190;8.122;2023-09-12T08:35:42;24.50;99.90
30186;DHT22;31152;49.190;8.122;2023-09-12T08:38:12;24.60;99.90
30186;DHT22;31152;49.190;8.122;2023-09-12T08:40:50;24.70;99.90
30186;DHT22;31152;49.190;8.122;2023-09-12T08:43:17;24.90;99.90
30186;DHT22;31152;49.190;8.122;2023-09-12T08:45:47;25.00;99.90
30186;DHT22;31152;49.190;8.122;2023-09-12T08:48:15;25.20;99.90
30186;DHT22;31152;49.190;8.122;2023-09-12T08:50:44;25.50;99.90
30186;DHT22;31152;49.190;8.122;2023-09-12T08:53:15;25.50;99.90
30186;DHT22;31152;49.190;8.122;2023-09-12T08:55:41;25.70;99.90
30186;DHT22;31152;49.190;8.122;2023-09-12T08:58:08;25.80;99.90
30186;DHT22;31152;49.190;8.122;2023-09-12T09:00:36;25.80;99.90
30186;DHT22;31152;49.190;8.122;2023-09-12T09:03:04;25.90;99.90
30186;DHT22;31152;49.190;8.122;2023-09-12T09:05:31;25.90;99.90
30186;DHT22;31152;49.190;8.122;2023-09-12T09:08:00;26.10;99.90
30186;DHT22;31152;49.190;8.122;2023-09-12T09:10:30;26.20;99.90
30186;DHT22;31152;49.190;8.122;2023-09-12T09:13:15;26.40;99.90
30186;DHT22;31152;49.190;8.122;2023-09-12T09:15:42;26.70;99.90
30186;DHT22;31152;49.190;8.122;2023-09-12T09:18:09;26.70;99.90
30186;DHT22;31152;49.190;8.122;2023-09-12T09:20:39;26.80;99.90
30186;DHT22;31152;49.190;8.122;2023-09-12T09:23:09;26.90;99.90
30186;DHT22;31152;49.190;8.122;2023-09-12T09:25:39;27.10;99.90
30186;DHT22;31152;49.190;8.122;2023-09-12T09:28:21;27.40;99.90
30186;DHT22;31152;49.190;8.122;2023-09-12T09:30:51;27.60;99.90
30186;DHT22;31152;49.190;8.122;2023-09-12T09:33:20;27.60;99.40
30186;DHT22;31152;49.190;8.122;2023-09-12T09:35:48;27.70;99.40
30186;DHT22;31152;49.190;8.122;2023-09-12T09:38:19;27.70;99.20
30186;DHT22;31152;49.190;8.122;2023-09-12T09:40:46;27.70;99.20
30186;DHT22;31152;49.190;8.122;2023-09-12T09:43:19;27.70;99.10
30186;DHT22;31152;49.190;8.122;2023-09-12T09:45:51;27.90;98.70
30186;DHT22;31152;49.190;8.122;2023-09-12T09:48:24;28.00;98.50
30186;DHT22;31152;49.190;8.122;2023-09-12T09:51:02;28.20;98.00
30186;DHT22;31152;49.190;8.122;2023-09-12T09:53:30;28.50;97.40
30186;DHT22;31152;49.190;8.122;2023-09-12T09:56:09;28.80;97.00
30186;DHT22;31152;49.190;8.122;2023-09-12T09:58:46;29.00;96.90
30186;DHT22;31152;49.190;8.122;2023-09-12T10:01:17;28.90;96.40
30186;DHT22;31152;49.190;8.122;2023-09-12T10:03:46;29.10;96.70
30186;DHT22;31152;49.190;8.122;2023-09-12T10:06:18;29.20;96.20
30186;DHT22;31152;49.190;8.122;2023-09-12T10:08:49;28.90;96.10
30186;DHT22;31152;49.190;8.122;2023-09-12T10:11:22;29.00;96.50
30186;DHT22;31152;49.190;8.122;2023-09-12T10:13:53;28.90;96.50
30186;DHT22;31152;49.190;8.122;2023-09-12T10:16:23;29.00;96.40
30186;DHT22;31152;49.190;8.122;2023-09-12T10:19:12;29.10;96.40
30186;DHT22;31152;49.190;8.122;2023-09-12T10:22:02;29.40;95.50
30186;DHT22;31152;49.190;8.122;2023-09-12T10:24:31;29.40;95.50
30186;DHT22;31152;49.190;8.122;2023-09-12T10:27:00;29.50;95.10
30186;DHT22;31152;49.190;8.122;2023-09-12T10:29:31;29.50;95.10
30186;DHT22;31152;49.190;8.122;2023-09-12T10:31:58;29.70;95.00
30186;DHT22;31152;49.190;8.122;2023-09-12T10:34:27;29.60;94.70
30186;DHT22;31152;49.190;8.122;2023-09-12T10:36:58;29.80;94.80
30186;DHT22;31152;49.190;8.122;2023-09-12T10:39:28;30.10;93.90
30186;DHT22;31152;49.190;8.122;2023-09-12T10:41:57;30.30;93.40
30186;DHT22;31152;49.190;8.122;2023-09-12T10:44:25;30.50;93.30
30186;DHT22;31152;49.190;8.122;2023-09-12T10:46:53;30.70;93.20
30186;DHT22;31152;49.190;8.122;2023-09-12T10:49:21;31.10;91.90
30186;DHT22;31152;49.190;8.122;2023-09-12T10:51:48;31.20;91.60
30186;DHT22;31152;49.190;8.122;2023-09-12T10:54:46;31.50;91.60
30186;DHT22;31152;49.190;8.122;2023-09-12T10:57:11;31.50;91.00
30186;DHT22;31152;49.190;8.122;2023-09-12T11:02:35;31.70;90.10
30186;DHT22;31152;49.190;8.122;2023-09-12T11:08:01;32.20;88.60
30186;DHT22;31152;49.190;8.122;2023-09-12T11:10:28;32.10;87.60
30186;DHT22;31152;49.190;8.122;2023-09-12T11:12:58;32.10;87.70
30186;DHT22;31152;49.190;8.122;2023-09-12T11:15:27;32.30;87.50
30186;DHT22;31152;49.190;8.122;2023-09-12T11:18:02;32.50;85.60
30186;DHT22;31152;49.190;8.122;2023-09-12T11:20:51;32.90;85.70
30186;DHT22;31152;49.190;8.122;2023-09-12T11:23:23;33.00;83.80
30186;DHT22;31152;49.190;8.122;2023-09-12T11:26:03;32.90;82.60
30186;DHT22;31152;49.190;8.122;2023-09-12T11:28:32;32.90;84.00
30186;DHT22;31152;49.190;8.122;2023-09-12T11:30:59;32.80;83.70
30186;DHT22;31152;49.190;8.122;2023-09-12T11:33:26;32.90;82.50
30186;DHT22;31152;49.190;8.122;2023-09-12T11:35:54;32.90;82.10
30186;DHT22;31152;49.190;8.122;2023-09-12T11:38:29;33.10;80.60
30186;DHT22;31152;49.190;8.122;2023-09-12T11:40:57;33.20;81.60
30186;DHT22;31152;49.190;8.122;2023-09-12T11:43:25;33.20;80.90
30186;DHT22;31152;49.190;8.122;2023-09-12T11:45:54;33.30;79.70
30186;DHT22;31152;49.190;8.122;2023-09-12T11:48:24;33.30;80.00
30186;DHT22;31152;49.190;8.122;2023-09-12T11:50:52;32.90;79.50
30186;DHT22;31152;49.190;8.122;2023-09-12T11:53:21;32.60;80.50
30186;DHT22;31152;49.190;8.122;2023-09-12T11:55:52;32.50;79.80
30186;DHT22;31152;49.190;8.122;2023-09-12T11:58:19;32.60;80.00
30186;DHT22;31152;49.190;8.122;2023-09-12T12:00:54;32.70;79.00
30186;DHT22;31152;49.190;8.122;2023-09-12T12:03:26;32.80;79.60
30186;DHT22;31152;49.190;8.122;2023-09-12T12:05:56;32.70;78.50
30186;DHT22;31152;49.190;8.122;2023-09-12T12:08:24;32.70;79.40
30186;DHT22;31152;49.190;8.122;2023-09-12T12:10:54;32.80;79.10
30186;DHT22;31152;49.190;8.122;2023-09-12T12:13:24;32.80;80.00
30186;DHT22;31152;49.190;8.122;2023-09-12T12:15:51;33.10;78.20
30186;DHT22;31152;49.190;8.122;2023-09-12T12:18:20;33.00;76.80
30186;DHT22;31152;49.190;8.122;2023-09-12T12:20:47;33.00;77.90
30186;DHT22;31152;49.190;8.122;2023-09-12T12:23:14;33.00;77.60
30186;DHT22;31152;49.190;8.122;2023-09-12T12:25:41;32.90;77.00
30186;DHT22;31152;49.190;8.122;2023-09-12T12:28:08;32.90;77.70
30186;DHT22;31152;49.190;8.122;2023-09-12T12:30:36;33.00;77.00
30186;DHT22;31152;49.190;8.122;2023-09-12T12:33:09;33.20;76.60
30186;DHT22;31152;49.190;8.122;2023-09-12T12:36:03;33.40;75.70
30186;DHT22;31152;49.190;8.122;2023-09-12T12:38:36;33.60;75.80
30186;DHT22;31152;49.190;8.122;2023-09-12T12:41:10;33.90;74.90
30186;DHT22;31152;49.190;8.122;2023-09-12T12:43:40;34.10;73.90
30186;DHT22;31152;49.190;8.122;2023-09-12T12:46:13;34.40;73.80
30186;DHT22;31152;49.190;8.122;2023-09-12T12:48:43;34.30;71.80
30186;DHT22;31152;49.190;8.122;2023-09-12T12:51:20;34.10;72.50
30186;DHT22;31152;49.190;8.122;2023-09-12T12:53:50;33.90;72.30
30186;DHT22;31152;49.190;8.122;2023-09-12T12:56:23;33.80;72.50
30186;DHT22;31152;49.190;8.122;2023-09-12T12:58:56;33.90;72.70
30186;DHT22;31152;49.190;8.122;2023-09-12T13:01:25;34.30;72.10
30186;DHT22;31152;49.190;8.122;2023-09-12T13:03:52;34.50;69.60
30186;DHT22;31152;49.190;8.122;2023-09-12T13:06:21;34.90;70.40
30186;DHT22;31152;49.190;8.122;2023-09-12T13:08:48;35.40;69.80
30186;DHT22;31152;49.190;8.122;2023-09-12T13:11:16;35.60;67.10
30186;DHT22;31152;49.190;8.122;2023-09-12T13:13:47;35.20;67.30
30186;DHT22;31152;49.190;8.122;2023-09-12T13:16:15;35.00;67.40
30186;DHT22;31152;49.190;8.122;2023-09-12T13:18:43;35.20;67.20
30186;DHT22;31152;49.190;8.122;2023-09-12T13:21:10;35.10;67.60
30186;DHT22;31152;49.190;8.122;2023-09-12T13:23:38;35.00;66.70
30186;DHT22;31152;49.190;8.122;2023-09-12T13:26:09;35.40;67.20
30186;DHT22;31152;49.190;8.122;2023-09-12T13:28:36;35.70;65.20
30186;DHT22;31152;49.190;8.122;2023-09-12T13:31:03;35.60;65.00
30186;DHT22;31152;49.190;8.122;2023-09-12T13:33:30;35.40;65.80
30186;DHT22;31152;49.190;8.122;2023-09-12T13:36:00;35.40;65.10
30186;DHT22;31152;49.190;8.122;2023-09-12T13:38:30;35.10;65.60
30186;DHT22;31152;49.190;8.122;2023-09-12T13:40:57;35.20;65.70
30186;DHT22;31152;49.190;8.122;2023-09-12T13:43:23;35.00;65.30
30186;DHT22;31152;49.190;8.122;2023-09-12T13:45:50;35.00;66.50
30186;DHT22;31152;49.190;8.122;2023-09-12T13:48:17;35.10;67.30
30186;DHT22;31152;49.190;8.122;2023-09-12T13:50:47;35.30;65.50
30186;DHT22;31152;49.190;8.122;2023-09-12T13:53:14;35.20;65.00
30186;DHT22;31152;49.190;8.122;2023-09-12T13:55:41;35.20;64.90
30186;DHT22;31152;49.190;8.122;2023-09-12T13:58:30;35.00;65.70
30186;DHT22;31152;49.190;8.122;2023-09-12T14:01:11;34.50;65.00
30186;DHT22;31152;49.190;8.122;2023-09-12T14:03:53;34.30;66.00
30186;DHT22;31152;49.190;8.122;2023-09-12T14:06:21;34.10;66.00
30186;DHT22;31152;49.190;8.122;2023-09-12T14:08:48;33.80;66.20
30186;DHT22;31152;49.190;8.122;2023-09-12T14:11:15;33.80;67.20
30186;DHT22;31152;49.190;8.122;2023-09-12T14:14:00;33.80;66.70
30186;DHT22;31152;49.190;8.122;2023-09-12T14:16:42;34.10;67.00
30186;DHT22;31152;49.190;8.122;2023-09-12T14:19:14;34.20;65.00
30186;DHT22;31152;49.190;8.122;2023-09-12T14:21:44;34.20;64.50
30186;DHT22;31152;49.190;8.122;2023-09-12T14:24:12;34.20;65.10
30186;DHT22;31152;49.190;8.122;2023-09-12T14:26:39;34.20;62.10
30186;DHT22;31152;49.190;8.122;2023-09-12T14:29:07;34.30;63.10
30186;DHT22;31152;49.190;8.122;2023-09-12T14:31:34;34.30;64.20
30186;DHT22;31152;49.190;8.122;2023-09-12T14:34:06;34.10;62.10
30186;DHT22;31152;49.190;8.122;2023-09-12T14:36:35;33.90;62.00
30186;DHT22;31152;49.190;8.122;2023-09-12T14:39:02;33.60;63.20
30186;DHT22;31152;49.190;8.122;2023-09-12T14:41:29;33.30;60.30
30186;DHT22;31152;49.190;8.122;2023-09-12T14:43:56;33.10;60.70
30186;DHT22;31152;49.190;8.122;2023-09-12T14:46:23;32.90;62.00
30186;DHT22;31152;49.190;8.122;2023-09-12T14:48:50;32.90;60.00
30186;DHT22;31152;49.190;8.122;2023-09-12T14:51:27;32.90;59.20
30186;DHT22;31152;49.190;8.122;2023-09-12T14:54:00;32.80;59.40
30186;DHT22;31152;49.190;8.122;2023-09-12T14:56:26;32.90;58.10
30186;DHT22;31152;49.190;8.122;2023-09-12T14:58:55;32.70;58.10
30186;DHT22;31152;49.190;8.122;2023-09-12T15:01:22;32.50;57.10
30186;DHT22;31152;49.190;8.122;2023-09-12T15:03:52;32.40;57.10
30186;DHT22;31152;49.190;8.122;2023-09-12T15:06:20;32.30;57.50
30186;DHT22;31152;49.190;8.122;2023-09-12T15:08:51;32.20;57.90
30186;DHT22;31152;49.190;8.122;2023-09-12T15:11:18;32.10;58.30
30186;DHT22;31152;49.190;8.122;2023-09-12T15:13:44;31.90;59.40
30186;DHT22;31152;49.190;8.122;2023-09-12T15:16:16;31.90;59.20
30186;DHT22;31152;49.190;8.122;2023-09-12T15:18:43;31.90;59.30
30186;DHT22;31152;49.190;8.122;2023-09-12T15:21:10;31.90;59.90
30186;DHT22;31152;49.190;8.122;2023-09-12T15:23:36;31.90;60.50
30186;DHT22;31152;49.190;8.122;2023-09-12T15:26:04;31.90;60.70
30186;DHT22;31152;49.190;8.122;2023-09-12T15:28:31;31.70;61.80
30186;DHT22;31152;49.190;8.122;2023-09-12T15:31:02;31.70;62.80
30186;DHT22;31152;49.190;8.122;2023-09-12T15:33:30;31.60;63.40
30186;DHT22;31152;49.190;8.122;2023-09-12T15:36:00;31.50;64.50
30186;DHT22;31152;49.190;8.122;2023-09-12T15:38:27;31.30;65.30
30186;DHT22;31152;49.190;8.122;2023-09-12T15:40:55;31.20;66.30
30186;DHT22;31152;49.190;8.122;2023-09-12T15:43:27;31.20;65.70
30186;DHT22;31152;49.190;8.122;2023-09-12T15:45:54;31.20;66.90
30186;DHT22;31152;49.190;8.122;2023-09-12T15:48:21;31.20;66.60
30186;DHT22;31152;49.190;8.122;2023-09-12T15:50:47;31.40;66.20
30186;DHT22;31152;49.190;8.122;2023-09-12T15:53:15;31.40;66.30